sensor_id;sensor_type;location;lat;lon;timestamp;P1;durP1;ratioP1;P2;durP2;ratioP2
62463;SDS011;48512;48.552;9.380;2022-09-17T00:01:19;1.70;;;0.80;;
62463;SDS011;48512;48.552;9.380;2022-09-17T00:03:53;1.90;;;1.08;;
62463;SDS011;48512;48.552;9.380;2022-09-17T00:06:21;1.30;;;0.90;;
62463;SDS011;48512;48.552;9.380;2022-09-17T00:08:47;1.85;;;1.00;;
62463;SDS011;48512;48.552;9.380;2022-09-17T00:11:15;3.10;;;1.13;;
62463;SDS011;48512;48.552;9.380;2022-09-17T00:13:44;3.17;;;1.02;;
62463;SDS011;48512;48.552;9.380;2022-09-17T00:16:11;5.47;;;1.20;;
62463;SDS011;48512;48.552;9.380;2022-09-17T00:18:36;0.80;;;0.68;;
62463;SDS011;48512;48.552;9.380;2022-09-17T00:21:05;6.38;;;1.00;;
62463;SDS011;48512;48.552;9.380;2022-09-17T00:23:31;3.17;;;1.10;;
62463;SDS011;48512;48.552;9.380;2022-09-17T00:25:57;1.15;;;0.80;;
62463;SDS011;48512;48.552;9.380;2022-09-17T00:28:23;5.18;;;1.30;;
62463;SDS011;48512;48.552;9.380;2022-09-17T00:30:49;1.65;;;0.80;;
62463;SDS011;48512;48.552;9.380;2022-09-17T00:33:15;1.10;;;1.00;;
62463;SDS011;48512;48.552;9.380;2022-09-17T00:35:42;1.17;;;0.80;;
62463;SDS011;48512;48.552;9.380;2022-09-17T00:38:08;1.83;;;1.00;;
62463;SDS011;48512;48.552;9.380;2022-09-17T00:40:33;1.00;;;0.82;;
62463;SDS011;48512;48.552;9.380;2022-09-17T00:42:59;2.03;;;1.10;;
62463;SDS011;48512;48.552;9.380;2022-09-17T00:45:25;0.90;;;0.90;;
62463;SDS011;48512;48.552;9.380;2022-09-17T00:48:01;1.13;;;0.80;;
62463;SDS011;48512;48.552;9.380;2022-09-17T00:50:36;1.65;;;0.90;;
62463;SDS011;48512;48.552;9.380;2022-09-17T00:53:09;2.42;;;1.00;;
62463;SDS011;48512;48.552;9.380;2022-09-17T00:56:20;3.33;;;1.10;;
62463;SDS011;48512;48.552;9.380;2022-09-17T00:58:29;1.15;;;0.93;;
62463;SDS011;48512;48.552;9.380;2022-09-17T01:00:57;2.47;;;1.13;;
62463;SDS011;48512;48.552;9.380;2022-09-17T01:03:24;1.98;;;1.17;;
62463;SDS011;48512;48.552;9.380;2022-09-17T01:24:49;2.90;;;1.30;;
62463;SDS011;48512;48.552;9.380;2022-09-17T01:38:14;2.00;;;1.40;;
62463;SDS011;48512;48.552;9.380;2022-09-17T01:48:24;2.67;;;1.35;;
62463;SDS011;48512;48.552;9.380;2022-09-17T01:51:06;1.35;;;1.25;;
62463;SDS011;48512;48.552;9.380;2022-09-17T01:56:19;3.45;;;1.45;;
62463;SDS011;48512;48.552;9.380;2022-09-17T01:58:51;2.28;;;1.60;;
62463;SDS011;48512;48.552;9.380;2022-09-17T02:01:22;2.35;;;1.65;;
62463;SDS011;48512;48.552;9.380;2022-09-17T02:03:59;1.95;;;1.50;;
62463;SDS011;48512;48.552;9.380;2022-09-17T02:06:35;2.00;;;1.50;;
62463;SDS011;48512;48.552;9.380;2022-09-17T02:09:07;3.47;;;1.70;;
62463;SDS011;48512;48.552;9.380;2022-09-17T02:11:39;3.40;;;1.65;;
62463;SDS011;48512;48.552;9.380;2022-09-17T02:14:14;6.65;;;1.50;;
62463;SDS011;48512;48.552;9.380;2022-09-17T02:16:46;2.72;;;1.55;;
62463;SDS011;48512;48.552;9.380;2022-09-17T02:29:43;2.47;;;1.58;;
62463;SDS011;48512;48.552;9.380;2022-09-17T02:32:09;3.53;;;1.97;;
62463;SDS011;48512;48.552;9.380;2022-09-17T02:34:36;2.35;;;1.80;;
62463;SDS011;48512;48.552;9.380;2022-09-17T02:37:02;3.08;;;1.80;;
62463;SDS011;48512;48.552;9.380;2022-09-17T02:39:28;1.75;;;1.45;;
62463;SDS011;48512;48.552;9.380;2022-09-17T02:53:08;1.88;;;1.60;;
62463;SDS011;48512;48.552;9.380;2022-09-17T02:55:41;1.60;;;1.50;;
62463;SDS011;48512;48.552;9.380;2022-09-17T03:00:47;1.63;;;1.50;;
62463;SDS011;48512;48.552;9.380;2022-09-17T03:05:47;2.50;;;2.08;;
62463;SDS011;48512;48.552;9.380;2022-09-17T03:08:15;3.75;;;2.28;;
62463;SDS011;48512;48.552;9.380;2022-09-17T03:10:42;4.82;;;2.38;;
62463;SDS011;48512;48.552;9.380;2022-09-17T03:13:08;3.90;;;2.10;;
62463;SDS011;48512;48.552;9.380;2022-09-17T03:15:34;2.33;;;1.67;;
62463;SDS011;48512;48.552;9.380;2022-09-17T03:17:59;3.97;;;1.83;;
62463;SDS011;48512;48.552;9.380;2022-09-17T03:20:25;3.53;;;2.10;;
62463;SDS011;48512;48.552;9.380;2022-09-17T03:22:51;4.05;;;2.40;;
62463;SDS011;48512;48.552;9.380;2022-09-17T03:25:16;4.63;;;2.20;;
62463;SDS011;48512;48.552;9.380;2022-09-17T03:27:42;2.72;;;1.90;;
62463;SDS011;48512;48.552;9.380;2022-09-17T03:30:08;2.70;;;1.95;;
62463;SDS011;48512;48.552;9.380;2022-09-17T03:32:33;2.08;;;1.83;;
62463;SDS011;48512;48.552;9.380;2022-09-17T03:34:59;2.55;;;2.00;;
62463;SDS011;48512;48.552;9.380;2022-09-17T03:37:24;3.72;;;1.98;;
62463;SDS011;48512;48.552;9.380;2022-09-17T03:39:49;7.03;;;1.98;;
62463;SDS011;48512;48.552;9.380;2022-09-17T03:42:15;4.35;;;1.95;;
62463;SDS011;48512;48.552;9.380;2022-09-17T03:44:40;6.65;;;2.20;;
62463;SDS011;48512;48.552;9.380;2022-09-17T03:47:06;6.90;;;1.90;;
62463;SDS011;48512;48.552;9.380;2022-09-17T03:49:31;4.95;;;2.03;;
62463;SDS011;48512;48.552;9.380;2022-09-17T03:51:57;2.53;;;1.80;;
62463;SDS011;48512;48.552;9.380;2022-09-17T03:54:22;4.55;;;2.03;;
62463;SDS011;48512;48.552;9.380;2022-09-17T03:56:47;5.22;;;2.40;;
62463;SDS011;48512;48.552;9.380;2022-09-17T03:59:13;3.95;;;1.95;;
62463;SDS011;48512;48.552;9.380;2022-09-17T04:01:38;5.40;;;2.20;;
62463;SDS011;48512;48.552;9.380;2022-09-17T04:04:03;2.88;;;2.00;;
62463;SDS011;48512;48.552;9.380;2022-09-17T04:06:29;16.02;;;3.42;;
62463;SDS011;48512;48.552;9.380;2022-09-17T04:08:54;3.60;;;2.22;;
62463;SDS011;48512;48.552;9.380;2022-09-17T04:11:21;2.42;;;1.90;;
62463;SDS011;48512;48.552;9.380;2022-09-17T04:13:46;4.75;;;2.25;;
62463;SDS011;48512;48.552;9.380;2022-09-17T04:16:12;2.40;;;2.05;;
62463;SDS011;48512;48.552;9.380;2022-09-17T04:18:38;4.90;;;2.30;;
62463;SDS011;48512;48.552;9.380;2022-09-17T04:21:03;5.03;;;2.22;;
62463;SDS011;48512;48.552;9.380;2022-09-17T04:23:29;4.38;;;2.03;;
62463;SDS011;48512;48.552;9.380;2022-09-17T04:25:54;3.53;;;1.80;;
62463;SDS011;48512;48.552;9.380;2022-09-17T04:28:19;4.85;;;2.17;;
62463;SDS011;48512;48.552;9.380;2022-09-17T04:30:46;6.07;;;2.00;;
62463;SDS011;48512;48.552;9.380;2022-09-17T04:33:12;5.70;;;2.00;;
62463;SDS011;48512;48.552;9.380;2022-09-17T04:35:37;4.50;;;1.90;;
62463;SDS011;48512;48.552;9.380;2022-09-17T04:38:03;2.33;;;1.70;;
62463;SDS011;48512;48.552;9.380;2022-09-17T04:40:28;2.55;;;1.95;;
62463;SDS011;48512;48.552;9.380;2022-09-17T04:42:54;2.33;;;1.83;;
62463;SDS011;48512;48.552;9.380;2022-09-17T04:45:20;3.83;;;2.40;;
62463;SDS011;48512;48.552;9.380;2022-09-17T04:47:46;6.75;;;2.95;;
62463;SDS011;48512;48.552;9.380;2022-09-17T04:50:12;2.78;;;2.55;;
62463;SDS011;48512;48.552;9.380;2022-09-17T04:52:41;4.22;;;2.53;;
62463;SDS011;48512;48.552;9.380;2022-09-17T04:57:33;3.67;;;2.65;;
62463;SDS011;48512;48.552;9.380;2022-09-17T04:59:58;7.63;;;3.03;;
62463;SDS011;48512;48.552;9.380;2022-09-17T05:02:24;3.83;;;2.60;;
62463;SDS011;48512;48.552;9.380;2022-09-17T05:04:49;4.32;;;2.50;;
62463;SDS011;48512;48.552;9.380;2022-09-17T05:07:15;7.18;;;2.53;;
62463;SDS011;48512;48.552;9.380;2022-09-17T05:09:40;3.72;;;2.70;;
62463;SDS011;48512;48.552;9.380;2022-09-17T05:12:05;3.22;;;2.60;;
62463;SDS011;48512;48.552;9.380;2022-09-17T05:14:31;8.65;;;2.60;;
62463;SDS011;48512;48.552;9.380;2022-09-17T05:16:56;5.65;;;2.58;;
62463;SDS011;48512;48.552;9.380;2022-09-17T05:19:22;4.07;;;2.60;;
62463;SDS011;48512;48.552;9.380;2022-09-17T05:21:47;5.90;;;2.45;;
62463;SDS011;48512;48.552;9.380;2022-09-17T05:24:13;6.60;;;2.42;;
62463;SDS011;48512;48.552;9.380;2022-09-17T05:26:38;4.57;;;2.38;;
62463;SDS011;48512;48.552;9.380;2022-09-17T05:29:03;3.83;;;2.45;;
62463;SDS011;48512;48.552;9.380;2022-09-17T05:31:29;5.63;;;2.42;;
62463;SDS011;48512;48.552;9.380;2022-09-17T05:33:56;5.57;;;3.60;;
62463;SDS011;48512;48.552;9.380;2022-09-17T05:36:22;7.40;;;2.92;;
62463;SDS011;48512;48.552;9.380;2022-09-17T05:38:47;2.83;;;2.47;;
62463;SDS011;48512;48.552;9.380;2022-09-17T05:41:12;4.93;;;2.95;;
62463;SDS011;48512;48.552;9.380;2022-09-17T05:43:38;4.47;;;2.42;;
62463;SDS011;48512;48.552;9.380;2022-09-17T05:46:04;8.23;;;2.67;;
62463;SDS011;48512;48.552;9.380;2022-09-17T05:48:30;4.93;;;3.33;;
62463;SDS011;48512;48.552;9.380;2022-09-17T05:50:56;8.15;;;4.00;;
62463;SDS011;48512;48.552;9.380;2022-09-17T05:53:21;6.78;;;3.58;;
62463;SDS011;48512;48.552;9.380;2022-09-17T05:55:47;6.55;;;2.40;;
62463;SDS011;48512;48.552;9.380;2022-09-17T05:58:16;5.10;;;2.00;;
62463;SDS011;48512;48.552;9.380;2022-09-17T06:00:43;4.38;;;2.55;;
62463;SDS011;48512;48.552;9.380;2022-09-17T06:03:12;4.30;;;2.63;;
62463;SDS011;48512;48.552;9.380;2022-09-17T06:05:39;5.90;;;2.80;;
62463;SDS011;48512;48.552;9.380;2022-09-17T06:08:05;8.70;;;3.03;;
62463;SDS011;48512;48.552;9.380;2022-09-17T06:10:31;7.88;;;3.53;;
62463;SDS011;48512;48.552;9.380;2022-09-17T06:12:57;8.63;;;4.28;;
62463;SDS011;48512;48.552;9.380;2022-09-17T06:15:23;8.10;;;4.18;;
62463;SDS011;48512;48.552;9.380;2022-09-17T06:17:50;8.05;;;3.97;;
62463;SDS011;48512;48.552;9.380;2022-09-17T06:20:15;6.55;;;3.30;;
62463;SDS011;48512;48.552;9.380;2022-09-17T06:22:41;8.85;;;3.45;;
62463;SDS011;48512;48.552;9.380;2022-09-17T06:25:07;6.72;;;3.10;;
62463;SDS011;48512;48.552;9.380;2022-09-17T06:27:33;6.22;;;2.53;;
62463;SDS011;48512;48.552;9.380;2022-09-17T06:29:59;4.05;;;2.33;;
62463;SDS011;48512;48.552;9.380;2022-09-17T06:32:25;6.03;;;3.20;;
62463;SDS011;48512;48.552;9.380;2022-09-17T06:34:50;5.53;;;3.28;;
62463;SDS011;48512;48.552;9.380;2022-09-17T06:37:16;7.72;;;3.47;;
62463;SDS011;48512;48.552;9.380;2022-09-17T06:39:42;5.22;;;2.90;;
62463;SDS011;48512;48.552;9.380;2022-09-17T06:42:07;7.78;;;2.80;;
62463;SDS011;48512;48.552;9.380;2022-09-17T06:44:33;4.53;;;3.25;;
62463;SDS011;48512;48.552;9.380;2022-09-17T06:46:58;9.55;;;2.95;;
62463;SDS011;48512;48.552;9.380;2022-09-17T06:49:24;7.75;;;3.10;;
62463;SDS011;48512;48.552;9.380;2022-09-17T06:51:49;4.93;;;2.90;;
62463;SDS011;48512;48.552;9.380;2022-09-17T06:54:14;5.90;;;3.10;;
62463;SDS011;48512;48.552;9.380;2022-09-17T06:56:40;3.35;;;2.60;;
62463;SDS011;48512;48.552;9.380;2022-09-17T06:59:05;6.00;;;2.50;;
62463;SDS011;48512;48.552;9.380;2022-09-17T07:01:30;8.30;;;2.85;;
62463;SDS011;48512;48.552;9.380;2022-09-17T07:03:56;5.22;;;2.60;;
62463;SDS011;48512;48.552;9.380;2022-09-17T07:06:22;4.80;;;2.40;;
62463;SDS011;48512;48.552;9.380;2022-09-17T07:08:47;10.77;;;3.08;;
62463;SDS011;48512;48.552;9.380;2022-09-17T07:11:13;5.97;;;2.70;;
62463;SDS011;48512;48.552;9.380;2022-09-17T07:13:40;6.85;;;2.80;;
62463;SDS011;48512;48.552;9.380;2022-09-17T07:16:05;5.82;;;3.42;;
62463;SDS011;48512;48.552;9.380;2022-09-17T07:18:31;7.50;;;2.70;;
62463;SDS011;48512;48.552;9.380;2022-09-17T07:21:01;5.40;;;2.78;;
62463;SDS011;48512;48.552;9.380;2022-09-17T07:23:30;14.77;;;6.40;;
62463;SDS011;48512;48.552;9.380;2022-09-17T07:26:00;9.95;;;2.67;;
62463;SDS011;48512;48.552;9.380;2022-09-17T07:28:27;4.43;;;2.78;;
62463;SDS011;48512;48.552;9.380;2022-09-17T07:30:53;9.48;;;3.05;;
62463;SDS011;48512;48.552;9.380;2022-09-17T07:33:20;4.75;;;2.78;;
62463;SDS011;48512;48.552;9.380;2022-09-17T07:35:59;10.27;;;3.60;;
62463;SDS011;48512;48.552;9.380;2022-09-17T07:38:26;4.15;;;2.55;;
62463;SDS011;48512;48.552;9.380;2022-09-17T07:43:22;7.43;;;2.57;;
62463;SDS011;48512;48.552;9.380;2022-09-17T07:45:48;5.00;;;2.78;;
62463;SDS011;48512;48.552;9.380;2022-09-17T07:48:14;5.65;;;2.38;;
62463;SDS011;48512;48.552;9.380;2022-09-17T07:50:39;7.15;;;2.72;;
62463;SDS011;48512;48.552;9.380;2022-09-17T07:53:04;5.97;;;2.95;;
62463;SDS011;48512;48.552;9.380;2022-09-17T07:55:30;4.25;;;2.67;;
62463;SDS011;48512;48.552;9.380;2022-09-17T07:57:55;6.35;;;3.67;;
62463;SDS011;48512;48.552;9.380;2022-09-17T08:00:20;4.95;;;2.83;;
62463;SDS011;48512;48.552;9.380;2022-09-17T08:02:51;4.50;;;2.70;;
62463;SDS011;48512;48.552;9.380;2022-09-17T08:05:20;5.35;;;3.10;;
62463;SDS011;48512;48.552;9.380;2022-09-17T08:07:49;6.88;;;3.47;;
62463;SDS011;48512;48.552;9.380;2022-09-17T08:10:19;4.90;;;3.45;;
62463;SDS011;48512;48.552;9.380;2022-09-17T08:12:47;7.57;;;3.22;;
62463;SDS011;48512;48.552;9.380;2022-09-17T08:15:14;6.63;;;3.15;;
62463;SDS011;48512;48.552;9.380;2022-09-17T08:17:43;8.38;;;3.20;;
62463;SDS011;48512;48.552;9.380;2022-09-17T08:20:10;9.15;;;3.20;;
62463;SDS011;48512;48.552;9.380;2022-09-17T08:22:35;6.65;;;3.20;;
62463;SDS011;48512;48.552;9.380;2022-09-17T08:25:01;5.78;;;2.67;;
62463;SDS011;48512;48.552;9.380;2022-09-17T08:27:29;4.07;;;2.38;;
62463;SDS011;48512;48.552;9.380;2022-09-17T08:29:55;3.63;;;2.00;;
62463;SDS011;48512;48.552;9.380;2022-09-17T08:32:20;3.45;;;2.15;;
62463;SDS011;48512;48.552;9.380;2022-09-17T08:34:46;3.13;;;2.20;;
62463;SDS011;48512;48.552;9.380;2022-09-17T08:37:11;5.60;;;2.80;;
62463;SDS011;48512;48.552;9.380;2022-09-17T08:39:36;4.40;;;2.58;;
62463;SDS011;48512;48.552;9.380;2022-09-17T08:44:42;7.22;;;2.88;;
62463;SDS011;48512;48.552;9.380;2022-09-17T08:50:31;5.20;;;3.00;;
62463;SDS011;48512;48.552;9.380;2022-09-17T08:58:13;3.95;;;2.40;;
62463;SDS011;48512;48.552;9.380;2022-09-17T09:05:58;5.80;;;2.60;;
62463;SDS011;48512;48.552;9.380;2022-09-17T09:08:35;3.20;;;2.42;;
62463;SDS011;48512;48.552;9.380;2022-09-17T09:11:15;5.97;;;2.47;;
62463;SDS011;48512;48.552;9.380;2022-09-17T09:13:47;4.75;;;2.58;;
62463;SDS011;48512;48.552;9.380;2022-09-17T09:16:20;5.32;;;2.33;;
62463;SDS011;48512;48.552;9.380;2022-09-17T09:18:49;6.45;;;2.60;;
62463;SDS011;48512;48.552;9.380;2022-09-17T09:21:24;5.18;;;3.05;;
62463;SDS011;48512;48.552;9.380;2022-09-17T09:26:23;8.75;;;4.47;;
62463;SDS011;48512;48.552;9.380;2022-09-17T09:29:12;5.22;;;3.00;;
62463;SDS011;48512;48.552;9.380;2022-09-17T09:32:06;8.27;;;2.78;;
62463;SDS011;48512;48.552;9.380;2022-09-17T09:34:48;6.43;;;4.13;;
62463;SDS011;48512;48.552;9.380;2022-09-17T09:37:22;8.13;;;3.70;;
62463;SDS011;48512;48.552;9.380;2022-09-17T09:39:50;10.57;;;4.28;;
62463;SDS011;48512;48.552;9.380;2022-09-17T09:45:00;4.20;;;2.70;;
62463;SDS011;48512;48.552;9.380;2022-09-17T09:47:37;6.53;;;3.15;;
62463;SDS011;48512;48.552;9.380;2022-09-17T09:50:18;3.90;;;2.72;;
62463;SDS011;48512;48.552;9.380;2022-09-17T09:53:08;7.68;;;3.38;;
62463;SDS011;48512;48.552;9.380;2022-09-17T09:55:51;6.05;;;2.55;;
62463;SDS011;48512;48.552;9.380;2022-09-17T09:58:34;5.85;;;2.72;;
62463;SDS011;48512;48.552;9.380;2022-09-17T10:01:00;6.82;;;2.78;;
62463;SDS011;48512;48.552;9.380;2022-09-17T10:03:27;5.13;;;2.30;;
62463;SDS011;48512;48.552;9.380;2022-09-17T10:08:33;6.80;;;2.45;;
62463;SDS011;48512;48.552;9.380;2022-09-17T10:13:31;9.85;;;3.40;;
62463;SDS011;48512;48.552;9.380;2022-09-17T10:18:41;17.35;;;3.20;;
62463;SDS011;48512;48.552;9.380;2022-09-17T10:21:07;7.60;;;3.40;;
62463;SDS011;48512;48.552;9.380;2022-09-17T10:24:04;6.75;;;3.03;;
62463;SDS011;48512;48.552;9.380;2022-09-17T10:26:36;5.47;;;2.58;;
62463;SDS011;48512;48.552;9.380;2022-09-17T10:29:02;8.40;;;2.80;;
62463;SDS011;48512;48.552;9.380;2022-09-17T10:34:30;10.00;;;2.70;;
62463;SDS011;48512;48.552;9.380;2022-09-17T10:36:57;9.82;;;3.15;;
62463;SDS011;48512;48.552;9.380;2022-09-17T10:39:28;14.85;;;4.13;;
62463;SDS011;48512;48.552;9.380;2022-09-17T10:44:37;10.23;;;3.35;;
62463;SDS011;48512;48.552;9.380;2022-09-17T10:47:16;8.02;;;3.03;;
62463;SDS011;48512;48.552;9.380;2022-09-17T10:49:45;8.60;;;3.03;;
62463;SDS011;48512;48.552;9.380;2022-09-17T11:00:29;12.15;;;3.55;;
62463;SDS011;48512;48.552;9.380;2022-09-17T11:06:21;9.02;;;3.10;;
62463;SDS011;48512;48.552;9.380;2022-09-17T11:19:54;6.20;;;2.60;;
62463;SDS011;48512;48.552;9.380;2022-09-17T11:27:47;6.18;;;2.40;;
62463;SDS011;48512;48.552;9.380;2022-09-17T11:30:25;5.00;;;2.17;;
62463;SDS011;48512;48.552;9.380;2022-09-17T11:35:51;7.47;;;2.22;;
62463;SDS011;48512;48.552;9.380;2022-09-17T11:40:59;7.60;;;3.00;;
62463;SDS011;48512;48.552;9.380;2022-09-17T11:43:36;6.20;;;2.15;;
62463;SDS011;48512;48.552;9.380;2022-09-17T11:46:13;7.38;;;2.20;;
62463;SDS011;48512;48.552;9.380;2022-09-17T11:48:45;8.85;;;2.40;;
62463;SDS011;48512;48.552;9.380;2022-09-17T11:51:23;8.55;;;2.60;;
62463;SDS011;48512;48.552;9.380;2022-09-17T11:53:56;5.57;;;2.20;;
62463;SDS011;48512;48.552;9.380;2022-09-17T11:56:43;7.35;;;2.35;;
62463;SDS011;48512;48.552;9.380;2022-09-17T12:01:55;8.20;;;2.22;;
62463;SDS011;48512;48.552;9.380;2022-09-17T12:09:47;4.88;;;1.60;;
62463;SDS011;48512;48.552;9.380;2022-09-17T12:12:18;5.70;;;1.85;;
62463;SDS011;48512;48.552;9.380;2022-09-17T12:17:20;3.92;;;1.90;;
62463;SDS011;48512;48.552;9.380;2022-09-17T12:19:50;6.50;;;1.83;;
62463;SDS011;48512;48.552;9.380;2022-09-17T12:24:51;2.92;;;1.38;;
62463;SDS011;48512;48.552;9.380;2022-09-17T12:59:59;4.47;;;2.20;;
62463;SDS011;48512;48.552;9.380;2022-09-17T13:02:41;4.65;;;1.83;;
62463;SDS011;48512;48.552;9.380;2022-09-17T13:15:45;5.60;;;2.15;;
62463;SDS011;48512;48.552;9.380;2022-09-17T13:18:47;7.53;;;1.90;;
62463;SDS011;48512;48.552;9.380;2022-09-17T13:23:56;3.22;;;1.75;;
62463;SDS011;48512;48.552;9.380;2022-09-17T13:26:31;5.25;;;2.60;;
62463;SDS011;48512;48.552;9.380;2022-09-17T13:28:59;6.10;;;2.30;;
62463;SDS011;48512;48.552;9.380;2022-09-17T13:33:59;6.38;;;2.22;;
62463;SDS011;48512;48.552;9.380;2022-09-17T13:38:57;4.28;;;2.10;;
62463;SDS011;48512;48.552;9.380;2022-09-17T13:41:23;5.78;;;2.20;;
62463;SDS011;48512;48.552;9.380;2022-09-17T13:43:49;3.58;;;1.90;;
62463;SDS011;48512;48.552;9.380;2022-09-17T13:46:22;2.40;;;2.10;;
62463;SDS011;48512;48.552;9.380;2022-09-17T13:48:51;5.95;;;2.40;;
62463;SDS011;48512;48.552;9.380;2022-09-17T13:53:55;9.80;;;3.97;;
62463;SDS011;48512;48.552;9.380;2022-09-17T13:59:14;6.60;;;2.17;;
62463;SDS011;48512;48.552;9.380;2022-09-17T14:02:01;3.40;;;2.00;;
62463;SDS011;48512;48.552;9.380;2022-09-17T14:04:32;7.63;;;3.72;;
62463;SDS011;48512;48.552;9.380;2022-09-17T14:09:56;21.08;;;7.22;;
62463;SDS011;48512;48.552;9.380;2022-09-17T14:15:29;6.72;;;2.80;;
62463;SDS011;48512;48.552;9.380;2022-09-17T14:17:58;11.77;;;4.35;;
62463;SDS011;48512;48.552;9.380;2022-09-17T14:20:23;25.77;;;8.40;;
62463;SDS011;48512;48.552;9.380;2022-09-17T14:22:56;4.22;;;2.30;;
62463;SDS011;48512;48.552;9.380;2022-09-17T14:25:27;11.68;;;4.90;;
62463;SDS011;48512;48.552;9.380;2022-09-17T14:28:21;3.58;;;1.30;;
62463;SDS011;48512;48.552;9.380;2022-09-17T14:31:24;2.90;;;1.58;;
62463;SDS011;48512;48.552;9.380;2022-09-17T14:33:55;2.53;;;1.45;;
62463;SDS011;48512;48.552;9.380;2022-09-17T14:36:21;4.43;;;1.70;;
62463;SDS011;48512;48.552;9.380;2022-09-17T14:38:48;4.32;;;1.77;;
62463;SDS011;48512;48.552;9.380;2022-09-17T14:41:24;4.38;;;1.40;;
62463;SDS011;48512;48.552;9.380;2022-09-17T14:44:02;3.10;;;1.40;;
62463;SDS011;48512;48.552;9.380;2022-09-17T14:51:47;3.13;;;2.17;;
62463;SDS011;48512;48.552;9.380;2022-09-17T14:54:17;5.10;;;2.00;;
62463;SDS011;48512;48.552;9.380;2022-09-17T15:00:03;4.55;;;2.15;;
62463;SDS011;48512;48.552;9.380;2022-09-17T15:04:48;3.75;;;2.47;;
62463;SDS011;48512;48.552;9.380;2022-09-17T15:07:14;3.95;;;2.30;;
62463;SDS011;48512;48.552;9.380;2022-09-17T15:09:39;1.85;;;1.55;;
62463;SDS011;48512;48.552;9.380;2022-09-17T15:12:04;1.70;;;1.55;;
62463;SDS011;48512;48.552;9.380;2022-09-17T15:14:32;3.35;;;1.80;;
62463;SDS011;48512;48.552;9.380;2022-09-17T15:17:01;3.05;;;1.83;;
62463;SDS011;48512;48.552;9.380;2022-09-17T15:19:29;5.63;;;3.13;;
62463;SDS011;48512;48.552;9.380;2022-09-17T15:22:02;5.30;;;2.75;;
62463;SDS011;48512;48.552;9.380;2022-09-17T15:24:55;2.85;;;1.70;;
62463;SDS011;48512;48.552;9.380;2022-09-17T15:37:57;1.48;;;1.38;;
62463;SDS011;48512;48.552;9.380;2022-09-17T15:42:54;2.15;;;1.08;;
62463;SDS011;48512;48.552;9.380;2022-09-17T15:45:27;2.00;;;1.20;;
62463;SDS011;48512;48.552;9.380;2022-09-17T15:47:59;4.57;;;1.90;;
62463;SDS011;48512;48.552;9.380;2022-09-17T15:50:26;7.18;;;2.63;;
62463;SDS011;48512;48.552;9.380;2022-09-17T15:55:43;4.90;;;2.58;;
62463;SDS011;48512;48.552;9.380;2022-09-17T16:08:59;3.03;;;1.90;;
62463;SDS011;48512;48.552;9.380;2022-09-17T16:11:28;9.07;;;3.28;;
62463;SDS011;48512;48.552;9.380;2022-09-17T16:13:56;3.40;;;1.90;;
62463;SDS011;48512;48.552;9.380;2022-09-17T16:16:42;6.00;;;2.67;;
62463;SDS011;48512;48.552;9.380;2022-09-17T16:19:08;3.20;;;2.03;;
62463;SDS011;48512;48.552;9.380;2022-09-17T16:21:34;3.92;;;2.17;;
62463;SDS011;48512;48.552;9.380;2022-09-17T16:24:00;6.25;;;2.00;;
62463;SDS011;48512;48.552;9.380;2022-09-17T16:26:28;4.60;;;1.90;;
62463;SDS011;48512;48.552;9.380;2022-09-17T16:28:58;3.50;;;1.92;;
62463;SDS011;48512;48.552;9.380;2022-09-17T16:31:30;4.30;;;2.03;;
62463;SDS011;48512;48.552;9.380;2022-09-17T16:33:57;5.82;;;2.97;;
62463;SDS011;48512;48.552;9.380;2022-09-17T16:36:23;6.78;;;2.00;;
62463;SDS011;48512;48.552;9.380;2022-09-17T16:38:48;4.78;;;2.00;;
62463;SDS011;48512;48.552;9.380;2022-09-17T16:41:14;4.10;;;2.42;;
62463;SDS011;48512;48.552;9.380;2022-09-17T16:43:39;4.72;;;2.30;;
62463;SDS011;48512;48.552;9.380;2022-09-17T16:46:05;5.25;;;2.83;;
62463;SDS011;48512;48.552;9.380;2022-09-17T16:48:32;3.50;;;2.20;;
62463;SDS011;48512;48.552;9.380;2022-09-17T16:50:58;4.63;;;2.03;;
62463;SDS011;48512;48.552;9.380;2022-09-17T16:53:25;6.50;;;2.35;;
62463;SDS011;48512;48.552;9.380;2022-09-17T16:55:50;4.20;;;2.00;;
62463;SDS011;48512;48.552;9.380;2022-09-17T16:58:16;4.57;;;2.08;;
62463;SDS011;48512;48.552;9.380;2022-09-17T17:00:42;2.83;;;1.92;;
62463;SDS011;48512;48.552;9.380;2022-09-17T17:03:08;5.32;;;2.17;;
62463;SDS011;48512;48.552;9.380;2022-09-17T17:05:37;5.87;;;2.13;;
62463;SDS011;48512;48.552;9.380;2022-09-17T17:08:02;5.97;;;2.92;;
62463;SDS011;48512;48.552;9.380;2022-09-17T17:10:27;7.75;;;3.00;;
62463;SDS011;48512;48.552;9.380;2022-09-17T17:12:53;5.82;;;2.50;;
62463;SDS011;48512;48.552;9.380;2022-09-17T17:15:18;3.38;;;1.98;;
62463;SDS011;48512;48.552;9.380;2022-09-17T17:17:45;4.90;;;2.60;;
62463;SDS011;48512;48.552;9.380;2022-09-17T17:20:11;6.63;;;2.92;;
62463;SDS011;48512;48.552;9.380;2022-09-17T17:22:38;3.53;;;2.35;;
62463;SDS011;48512;48.552;9.380;2022-09-17T17:25:05;5.20;;;2.30;;
62463;SDS011;48512;48.552;9.380;2022-09-17T17:27:31;5.72;;;2.25;;
62463;SDS011;48512;48.552;9.380;2022-09-17T17:29:57;3.03;;;2.00;;
62463;SDS011;48512;48.552;9.380;2022-09-17T17:32:22;5.63;;;2.85;;
62463;SDS011;48512;48.552;9.380;2022-09-17T17:34:48;2.40;;;1.48;;
62463;SDS011;48512;48.552;9.380;2022-09-17T17:37:14;6.28;;;1.67;;
62463;SDS011;48512;48.552;9.380;2022-09-17T17:39:40;3.65;;;1.40;;
62463;SDS011;48512;48.552;9.380;2022-09-17T17:42:05;3.25;;;1.70;;
62463;SDS011;48512;48.552;9.380;2022-09-17T17:44:31;2.60;;;1.50;;
62463;SDS011;48512;48.552;9.380;2022-09-17T17:46:56;2.78;;;1.60;;
62463;SDS011;48512;48.552;9.380;2022-09-17T17:49:22;5.60;;;1.80;;
62463;SDS011;48512;48.552;9.380;2022-09-17T17:51:47;39.83;;;36.08;;
62463;SDS011;48512;48.552;9.380;2022-09-17T17:54:13;69.38;;;63.40;;
62463;SDS011;48512;48.552;9.380;2022-09-17T17:56:38;31.60;;;28.70;;
62463;SDS011;48512;48.552;9.380;2022-09-17T17:59:04;5.72;;;2.70;;
62463;SDS011;48512;48.552;9.380;2022-09-17T18:01:29;5.18;;;2.20;;
62463;SDS011;48512;48.552;9.380;2022-09-17T18:03:56;5.45;;;2.10;;
62463;SDS011;48512;48.552;9.380;2022-09-17T18:06:23;4.75;;;2.67;;
62463;SDS011;48512;48.552;9.380;2022-09-17T18:08:50;3.92;;;2.22;;
62463;SDS011;48512;48.552;9.380;2022-09-17T18:11:15;2.78;;;2.17;;
62463;SDS011;48512;48.552;9.380;2022-09-17T18:13:40;5.57;;;2.38;;
62463;SDS011;48512;48.552;9.380;2022-09-17T18:16:06;6.05;;;2.58;;
62463;SDS011;48512;48.552;9.380;2022-09-17T18:18:35;7.60;;;2.72;;
62463;SDS011;48512;48.552;9.380;2022-09-17T18:21:04;4.28;;;2.35;;
62463;SDS011;48512;48.552;9.380;2022-09-17T18:23:32;4.70;;;2.42;;
62463;SDS011;48512;48.552;9.380;2022-09-17T18:25:59;6.68;;;3.47;;
62463;SDS011;48512;48.552;9.380;2022-09-17T18:28:26;5.32;;;2.85;;
62463;SDS011;48512;48.552;9.380;2022-09-17T18:30:53;4.88;;;2.67;;
62463;SDS011;48512;48.552;9.380;2022-09-17T18:33:19;5.30;;;2.63;;
62463;SDS011;48512;48.552;9.380;2022-09-17T18:35:48;5.65;;;2.75;;
62463;SDS011;48512;48.552;9.380;2022-09-17T18:38:15;5.53;;;3.42;;
62463;SDS011;48512;48.552;9.380;2022-09-17T18:40:41;7.43;;;2.80;;
62463;SDS011;48512;48.552;9.380;2022-09-17T18:43:07;5.18;;;2.53;;
62463;SDS011;48512;48.552;9.380;2022-09-17T18:45:33;3.50;;;2.10;;
62463;SDS011;48512;48.552;9.380;2022-09-17T18:47:58;6.60;;;2.40;;
62463;SDS011;48512;48.552;9.380;2022-09-17T18:50:23;5.75;;;2.60;;
62463;SDS011;48512;48.552;9.380;2022-09-17T18:52:49;7.38;;;2.30;;
62463;SDS011;48512;48.552;9.380;2022-09-17T18:55:14;3.35;;;2.45;;
62463;SDS011;48512;48.552;9.380;2022-09-17T18:57:40;6.47;;;3.42;;
62463;SDS011;48512;48.552;9.380;2022-09-17T19:00:06;9.35;;;2.35;;
62463;SDS011;48512;48.552;9.380;2022-09-17T19:02:35;5.35;;;2.05;;
62463;SDS011;48512;48.552;9.380;2022-09-17T19:05:00;4.43;;;2.10;;
62463;SDS011;48512;48.552;9.380;2022-09-17T19:07:26;3.72;;;2.30;;
62463;SDS011;48512;48.552;9.380;2022-09-17T19:09:51;3.28;;;2.15;;